Time;durP1;ratioP1;P1;durP2;ratioP2;P2;SDS_P1;SDS_P2;PMS_P1;PMS_P2;Temp;Humidity;BMP_temperature;BMP_pressure;BME280_temperature;BME280_humidity;BME280_pressure;Samples;Min_cycle;Max_cycle;Signal;HPM_P1;HPM_P2
2021/08/14 00:00:40;;;;;;;11.73;10.63;;;19.20;99.90;;;;;;5090277;28;20625;-88
2021/08/14 00:03:09;;;;;;;10.57;9.63;;;19.10;99.90;;;;;;5089886;28;20667;-88
2021/08/14 00:05:37;;;;;;;10.87;9.80;;;19.10;99.90;;;;;;5090390;28;20620;-88
2021/08/14 00:08:07;;;;;;;11.13;10.03;;;19.10;99.90;;;;;;5090539;28;20648;-88
2021/08/14 00:10:35;;;;;;;10.80;9.80;;;19.00;99.90;;;;;;5090306;28;20947;-88
2021/08/14 00:13:03;;;;;;;9.80;9.00;;;18.90;99.90;;;;;;5089466;28;20652;-88
2021/08/14 00:15:30;;;;;;;11.50;10.30;;;18.90;99.90;;;;;;5090262;28;20643;-88
2021/08/14 00:17:57;;;;;;;10.10;8.70;;;18.90;99.90;;;;;;5089899;28;20627;-88
2021/08/14 00:20:24;;;;;;;10.50;9.50;;;18.90;99.90;;;;;;5089869;28;20628;-88
2021/08/14 00:22:51;;;;;;;10.57;9.57;;;18.80;99.90;;;;;;5089095;28;20647;-87
2021/08/14 00:25:20;;;;;;;10.70;9.70;;;18.80;99.90;;;;;;5089438;28;20610;-88
2021/08/14 00:27:47;;;;;;;10.33;9.33;;;18.80;99.90;;;;;;5093286;28;20628;-87
2021/08/14 00:30:14;;;;;;;11.17;8.93;;;18.70;99.90;;;;;;5093608;28;20621;-88
2021/08/14 00:32:41;;;;;;;10.83;9.83;;;18.80;99.90;;;;;;5093706;28;20612;-87
2021/08/14 00:35:08;;;;;;;9.80;8.90;;;18.80;99.90;;;;;;5093029;28;20623;-88
2021/08/14 00:37:35;;;;;;;8.93;8.13;;;18.80;99.90;;;;;;5093357;28;20612;-88
2021/08/14 00:40:03;;;;;;;10.50;8.80;;;18.70;99.90;;;;;;5092946;28;20651;-88
2021/08/14 00:42:31;;;;;;;10.70;9.13;;;18.70;99.90;;;;;;5093024;28;20659;-88
2021/08/14 00:44:58;;;;;;;12.53;9.47;;;18.70;99.90;;;;;;5092883;28;21157;-88
2021/08/14 00:47:26;;;;;;;10.90;9.90;;;18.70;99.90;;;;;;5093564;28;21073;-88
2021/08/14 00:49:53;;;;;;;10.23;9.13;;;18.60;99.90;;;;;;5093334;28;21059;-88
2021/08/14 00:52:20;;;;;;;9.17;8.33;;;18.50;99.90;;;;;;5092661;28;20627;-88
2021/08/14 00:54:48;;;;;;;10.33;9.30;;;18.50;99.90;;;;;;5092789;28;20974;-88
2021/08/14 00:57:16;;;;;;;11.57;10.57;;;18.50;99.90;;;;;;5093170;28;20643;-88
2021/08/14 00:59:46;;;;;;;12.20;10.70;;;18.50;99.90;;;;;;5092916;28;20631;-88
2021/08/14 01:02:13;;;;;;;10.00;9.10;;;18.50;99.90;;;;;;5092485;28;20682;-87
2021/08/14 01:04:41;;;;;;;12.73;10.13;;;18.50;99.90;;;;;;5093967;28;20621;-87
2021/08/14 01:07:09;;;;;;;11.50;10.40;;;18.50;99.90;;;;;;5096404;28;20714;-88
2021/08/14 01:09:38;;;;;;;10.77;9.80;;;18.40;99.90;;;;;;5092912;28;20635;-88
2021/08/14 01:12:08;;;;;;;10.37;9.47;;;18.40;99.90;;;;;;5092528;28;21175;-87
2021/08/14 01:14:37;;;;;;;12.00;10.80;;;18.40;99.90;;;;;;5093389;28;20617;-88
2021/08/14 01:17:07;;;;;;;13.03;10.80;;;18.30;99.90;;;;;;5092833;28;21244;-88
2021/08/14 01:19:36;;;;;;;12.50;11.33;;;18.40;99.90;;;;;;5092133;28;20689;-87
2021/08/14 01:22:09;;;;;;;12.43;11.27;;;18.40;99.90;;;;;;5092017;28;20617;-87
2021/08/14 01:24:42;;;;;;;11.70;10.60;;;18.40;99.90;;;;;;5093044;28;20721;-88
2021/08/14 01:27:13;;;;;;;12.90;11.53;;;18.30;99.90;;;;;;5092541;28;20612;-87
2021/08/14 01:29:41;;;;;;;12.60;11.40;;;18.30;99.90;;;;;;5092571;28;21159;-88
2021/08/14 01:32:10;;;;;;;15.03;11.57;;;18.30;99.90;;;;;;5091642;28;20627;-88
2021/08/14 01:34:42;;;;;;;13.80;12.50;;;18.30;99.90;;;;;;5092559;28;20680;-88
2021/08/14 01:37:10;;;;;;;12.80;11.60;;;18.20;99.90;;;;;;5092267;28;21241;-88
2021/08/14 01:39:40;;;;;;;12.80;11.60;;;18.20;99.90;;;;;;5092375;28;21151;-88
2021/08/14 01:42:14;;;;;;;12.30;11.20;;;18.20;99.90;;;;;;5092055;28;21068;-88
2021/08/14 01:44:44;;;;;;;15.00;11.90;;;18.10;99.90;;;;;;5091883;28;20642;-88
2021/08/14 01:47:13;;;;;;;12.70;11.43;;;18.10;99.90;;;;;;5092321;28;20619;-87
2021/08/14 01:49:41;;;;;;;12.33;11.10;;;18.10;99.90;;;;;;5092044;28;20668;-88
2021/08/14 01:52:13;;;;;;;13.53;10.70;;;18.10;99.90;;;;;;5091899;28;20615;-88
2021/08/14 01:54:41;;;;;;;11.70;9.37;;;18.10;99.90;;;;;;5091882;28;20665;-88
2021/08/14 01:57:10;;;;;;;10.67;9.67;;;18.10;99.90;;;;;;5091695;28;20620;-88
2021/08/14 01:59:40;;;;;;;10.47;9.57;;;18.10;99.90;;;;;;5091901;28;20660;-87
2021/08/14 02:02:09;;;;;;;13.27;10.30;;;18.10;99.90;;;;;;5085062;28;20634;-87
2021/08/14 02:04:37;;;;;;;10.70;9.67;;;18.10;99.90;;;;;;5084783;28;20695;-88
2021/08/14 02:07:07;;;;;;;11.27;10.37;;;18.10;99.90;;;;;;5091230;28;20629;-87
2021/08/14 02:09:36;;;;;;;11.13;10.10;;;18.10;99.90;;;;;;5091923;28;21187;-88
2021/08/14 02:12:05;;;;;;;10.70;9.80;;;18.00;99.90;;;;;;5091091;28;21034;-88
2021/08/14 02:14:33;;;;;;;10.60;9.60;;;18.10;99.90;;;;;;5091925;28;20638;-88
2021/08/14 02:17:05;;;;;;;10.90;9.90;;;18.00;99.90;;;;;;5095835;28;20616;-88
2021/08/14 02:19:33;;;;;;;11.13;10.13;;;17.90;99.90;;;;;;5091448;28;20624;-87
2021/08/14 02:22:04;;;;;;;11.47;10.40;;;17.90;99.90;;;;;;5090189;28;20690;-87
2021/08/14 02:24:35;;;;;;;11.87;10.87;;;17.90;99.90;;;;;;5091621;28;20655;-88
2021/08/14 02:27:04;;;;;;;10.87;9.87;;;17.90;99.90;;;;;;5091269;28;20617;-87
2021/08/14 02:29:34;;;;;;;11.20;10.20;;;17.90;99.90;;;;;;5091372;28;20726;-87
2021/08/14 02:32:04;;;;;;;10.60;9.60;;;17.90;99.90;;;;;;5091398;28;20626;-87
2021/08/14 02:34:35;;;;;;;10.20;8.87;;;17.90;99.90;;;;;;5091066;28;21060;-86
2021/08/14 02:37:04;;;;;;;12.67;10.10;;;17.90;99.90;;;;;;5091270;28;20621;-87
2021/08/14 02:39:32;;;;;;;10.43;9.47;;;17.80;99.90;;;;;;5091318;28;20623;-87
2021/08/14 02:41:59;;;;;;;11.23;10.23;;;17.80;99.90;;;;;;5090640;28;21176;-88
2021/08/14 02:44:25;;;;;;;9.80;8.90;;;17.80;99.90;;;;;;5090734;28;20647;-87
2021/08/14 02:46:52;;;;;;;10.50;9.50;;;17.80;99.90;;;;;;5090682;28;20602;-87
2021/08/14 02:49:21;;;;;;;10.50;9.50;;;17.70;99.90;;;;;;5090492;28;20624;-88
2021/08/14 02:51:47;;;;;;;24.83;22.17;;;17.70;99.90;;;;;;5090504;28;20615;-87
2021/08/14 02:54:14;;;;;;;12.20;10.67;;;17.80;99.90;;;;;;5090677;28;20612;-87
2021/08/14 02:56:41;;;;;;;11.23;10.17;;;17.80;99.90;;;;;;5090806;28;20603;-87
2021/08/14 02:59:08;;;;;;;10.93;9.93;;;17.80;99.90;;;;;;5090653;28;20626;-87
2021/08/14 03:01:35;;;;;;;9.30;8.43;;;17.70;99.90;;;;;;5089612;28;20619;-87
2021/08/14 03:04:03;;;;;;;13.77;9.37;;;17.70;99.90;;;;;;5090867;28;20672;-87
2021/08/14 03:06:32;;;;;;;11.30;10.00;;;17.70;99.90;;;;;;5090858;28;20940;-87
2021/08/14 03:08:59;;;;;;;10.37;9.33;;;17.70;99.90;;;;;;5090393;28;20618;-87
2021/08/14 03:11:26;;;;;;;10.10;9.13;;;17.70;99.90;;;;;;5090232;28;20618;-87
2021/08/14 03:13:54;;;;;;;10.07;9.17;;;17.70;99.90;;;;;;5090341;28;20629;-87
2021/08/14 03:16:21;;;;;;;11.40;10.20;;;17.70;99.90;;;;;;5090606;28;20613;-87
2021/08/14 03:18:48;;;;;;;10.57;9.57;;;17.70;99.90;;;;;;5090273;28;20641;-87
2021/08/14 03:21:15;;;;;;;11.10;10.00;;;17.60;99.90;;;;;;5090278;28;20677;-87
2021/08/14 03:23:43;;;;;;;11.33;10.13;;;17.60;99.90;;;;;;5089531;28;21215;-87
2021/08/14 03:26:10;;;;;;;12.40;10.43;;;17.50;99.90;;;;;;5092961;28;20948;-86
2021/08/14 03:28:37;;;;;;;12.83;10.07;;;17.50;99.90;;;;;;5090617;28;20619;-87
2021/08/14 03:31:05;;;;;;;11.50;9.97;;;17.50;99.90;;;;;;5090587;28;20628;-85
2021/08/14 03:33:34;;;;;;;11.37;10.20;;;17.50;99.90;;;;;;5090411;28;20627;-86
2021/08/14 03:36:02;;;;;;;13.10;9.73;;;17.50;99.90;;;;;;5090360;28;20672;-87
2021/08/14 03:38:29;;;;;;;11.80;10.60;;;17.50;99.90;;;;;;5090719;28;20631;-86
2021/08/14 03:40:59;;;;;;;10.57;9.53;;;17.40;99.90;;;;;;5090214;28;20620;-86
2021/08/14 03:43:27;;;;;;;10.57;9.57;;;17.40;99.90;;;;;;5089767;28;20710;-87
2021/08/14 03:45:55;;;;;;;11.07;9.97;;;17.40;99.90;;;;;;5090157;28;21188;-87
2021/08/14 03:48:22;;;;;;;11.30;10.10;;;17.40;99.90;;;;;;5090096;28;20673;-87
2021/08/14 03:50:49;;;;;;;10.70;9.57;;;17.40;99.90;;;;;;5090378;28;20609;-86
2021/08/14 03:53:17;;;;;;;11.30;10.10;;;17.40;99.90;;;;;;5090142;28;20622;-86
2021/08/14 03:55:45;;;;;;;12.07;10.97;;;17.30;99.90;;;;;;5089709;28;20619;-85
2021/08/14 03:58:14;;;;;;;12.50;11.30;;;17.40;99.90;;;;;;5090187;28;20653;-86
2021/08/14 04:00:42;;;;;;;11.20;10.20;;;17.40;99.90;;;;;;5090268;28;20618;-87
2021/08/14 04:03:09;;;;;;;11.77;10.50;;;17.30;99.90;;;;;;5093736;28;20706;-86
2021/08/14 04:05:37;;;;;;;11.90;10.03;;;17.30;99.90;;;;;;5094460;28;21162;-86
2021/08/14 04:08:04;;;;;;;9.50;8.63;;;17.30;99.90;;;;;;5093960;28;20614;-86
2021/08/14 04:10:32;;;;;;;11.27;8.70;;;17.30;99.90;;;;;;5093203;28;21292;-86
2021/08/14 04:12:59;;;;;;;10.73;9.63;;;17.30;99.90;;;;;;5093411;28;21015;-86
2021/08/14 04:15:29;;;;;;;14.13;10.73;;;17.30;99.90;;;;;;5093803;28;20606;-86
2021/08/14 04:17:56;;;;;;;10.27;9.30;;;17.20;99.90;;;;;;5093323;28;20638;-86
2021/08/14 04:20:23;;;;;;;10.73;9.70;;;17.30;99.90;;;;;;5093507;28;20621;-86
2021/08/14 04:22:49;;;;;;;11.30;10.20;;;17.30;99.90;;;;;;5091940;28;20627;-86
2021/08/14 04:25:16;;;;;;;12.10;10.40;;;17.30;99.90;;;;;;5093116;28;21233;-86
2021/08/14 04:27:43;;;;;;;11.43;10.37;;;17.30;99.90;;;;;;5093319;28;20611;-86
2021/08/14 04:30:11;;;;;;;10.70;9.80;;;17.30;99.90;;;;;;5093372;28;20672;-86
2021/08/14 04:32:40;;;;;;;11.50;10.30;;;17.20;99.90;;;;;;5092596;28;20625;-86
2021/08/14 04:35:09;;;;;;;11.00;9.93;;;17.20;99.90;;;;;;5093468;28;20607;-86
2021/08/14 04:37:36;;;;;;;11.60;10.40;;;17.30;99.90;;;;;;5094127;28;20622;-86
2021/08/14 04:40:04;;;;;;;11.10;10.00;;;17.30;99.90;;;;;;5093825;28;21198;-86
2021/08/14 04:42:31;;;;;;;11.07;9.93;;;17.30;99.90;;;;;;5093180;28;20951;-85
2021/08/14 04:44:58;;;;;;;11.87;10.53;;;17.30;99.90;;;;;;5093023;28;20676;-85
2021/08/14 04:47:25;;;;;;;11.90;10.80;;;17.30;99.90;;;;;;5093292;28;20647;-86
2021/08/14 04:49:53;;;;;;;12.07;10.87;;;17.30;99.90;;;;;;5093009;28;20737;-85
2021/08/14 04:52:20;;;;;;;11.70;10.60;;;17.30;99.90;;;;;;5092948;28;20628;-86
2021/08/14 04:54:47;;;;;;;18.60;14.90;;;17.40;99.90;;;;;;5092951;28;21175;-86
2021/08/14 04:57:14;;;;;;;12.10;10.93;;;17.40;99.90;;;;;;5093130;28;20626;-86
2021/08/14 04:59:41;;;;;;;12.47;11.27;;;17.40;99.90;;;;;;5093073;28;20621;-86
2021/08/14 05:02:08;;;;;;;12.53;11.20;;;17.50;99.90;;;;;;5092318;28;21029;-85
2021/08/14 05:04:35;;;;;;;12.47;11.17;;;17.50;99.90;;;;;;5091815;28;20655;-85
2021/08/14 05:07:04;;;;;;;13.40;11.97;;;17.60;99.90;;;;;;5092915;28;20653;-85
2021/08/14 05:09:31;;;;;;;11.80;10.67;;;17.60;99.90;;;;;;5092740;28;20729;-85
2021/08/14 05:11:58;;;;;;;10.83;9.50;;;17.70;99.90;;;;;;5091558;28;21035;-85
2021/08/14 05:14:24;;;;;;;14.73;10.90;;;17.70;99.90;;;;;;5092178;28;20617;-85
2021/08/14 05:16:51;;;;;;;10.37;9.37;;;17.70;99.90;;;;;;5092436;28;21181;-86
2021/08/14 05:19:18;;;;;;;10.90;9.90;;;17.80;99.90;;;;;;5091727;28;21230;-85
2021/08/14 05:21:45;;;;;;;11.23;10.23;;;17.90;99.90;;;;;;5091992;28;20680;-85
2021/08/14 05:24:13;;;;;;;10.40;9.53;;;18.00;99.90;;;;;;5092004;28;20651;-85
2021/08/14 05:26:42;;;;;;;11.30;8.83;;;18.10;99.90;;;;;;5092650;28;20637;-85
2021/08/14 05:29:09;;;;;;;11.40;10.00;;;18.10;99.90;;;;;;5092112;28;20642;-85
2021/08/14 05:31:37;;;;;;;10.43;9.50;;;18.10;99.90;;;;;;5091154;28;20652;-85
2021/08/14 05:34:04;;;;;;;102.53;27.73;;;18.10;99.90;;;;;;5091725;28;20613;-85
2021/08/14 05:36:32;;;;;;;10.03;9.07;;;18.20;99.90;;;;;;5091875;28;20723;-85
2021/08/14 05:38:59;;;;;;;11.50;10.43;;;18.20;99.90;;;;;;5091910;28;20620;-85
2021/08/14 05:41:27;;;;;;;11.17;9.97;;;18.30;99.90;;;;;;5091505;28;20619;-85
2021/08/14 05:43:55;;;;;;;11.50;10.43;;;18.40;99.90;;;;;;5091618;28;20644;-85
2021/08/14 05:46:22;;;;;;;10.30;9.30;;;18.50;99.90;;;;;;5091420;28;20624;-85
2021/08/14 05:48:49;;;;;;;10.73;9.63;;;18.60;99.90;;;;;;5092357;28;20666;-85
2021/08/14 05:51:16;;;;;;;12.33;9.63;;;18.80;99.90;;;;;;5092092;28;20653;-85
2021/08/14 05:53:43;;;;;;;10.20;9.17;;;18.90;99.90;;;;;;5091702;28;21195;-85
2021/08/14 05:56:10;;;;;;;14.40;10.23;;;19.00;99.90;;;;;;5091732;28;20612;-85
2021/08/14 05:58:38;;;;;;;10.03;9.07;;;19.10;99.90;;;;;;5091730;28;20856;-85
2021/08/14 06:01:05;;;;;;;9.77;8.83;;;19.10;99.90;;;;;;5091670;28;21030;-85
2021/08/14 06:03:35;;;;;;;11.20;10.20;;;19.20;99.90;;;;;;5091897;28;20628;-85
2021/08/14 06:06:02;;;;;;;9.83;8.93;;;19.30;99.90;;;;;;5091453;28;20627;-86
2021/08/14 06:08:30;;;;;;;11.07;9.70;;;19.40;99.90;;;;;;5091959;28;20958;-85
2021/08/14 06:10:57;;;;;;;11.17;10.17;;;19.50;99.90;;;;;;5091089;28;20613;-84
2021/08/14 06:13:24;;;;;;;10.80;9.83;;;19.60;99.90;;;;;;5090487;28;20621;-84
2021/08/14 06:15:52;;;;;;;10.07;9.07;;;19.70;99.90;;;;;;5091076;28;21010;-84
2021/08/14 06:18:19;;;;;;;9.83;8.93;;;19.70;99.90;;;;;;5091070;28;20693;-84
2021/08/14 06:20:46;;;;;;;10.37;9.40;;;19.70;99.90;;;;;;5091009;28;21234;-84
2021/08/14 06:23:13;;;;;;;10.60;9.60;;;19.80;99.90;;;;;;5089551;28;20608;-84
2021/08/14 06:25:40;;;;;;;17.03;9.77;;;19.90;99.90;;;;;;5090506;28;20705;-84
2021/08/14 06:28:07;;;;;;;9.80;8.80;;;19.90;99.90;;;;;;5090451;28;20621;-85
2021/08/14 06:30:34;;;;;;;10.60;9.60;;;20.00;99.90;;;;;;5091092;28;20621;-84
2021/08/14 06:33:03;;;;;;;11.70;9.63;;;20.20;99.90;;;;;;5090798;28;20629;-84
2021/08/14 06:35:30;;;;;;;10.30;9.20;;;20.30;99.90;;;;;;5090726;28;21165;-84
2021/08/14 06:37:57;;;;;;;11.40;10.23;;;20.50;99.90;;;;;;5090846;28;21246;-85
2021/08/14 06:40:23;;;;;;;13.47;10.30;;;20.60;99.90;;;;;;5090668;28;20674;-84
2021/08/14 06:42:50;;;;;;;11.07;9.90;;;20.70;99.90;;;;;;5090260;28;20613;-85
2021/08/14 06:45:17;;;;;;;10.90;9.90;;;20.80;99.90;;;;;;5090570;28;20664;-84
2021/08/14 06:47:44;;;;;;;10.90;9.83;;;20.90;99.90;;;;;;5090799;28;21019;-85
2021/08/14 06:50:13;;;;;;;17.30;10.70;;;21.00;99.90;;;;;;5090379;28;20646;-84
2021/08/14 06:52:40;;;;;;;11.03;9.90;;;21.00;99.90;;;;;;5090050;28;20670;-84
2021/08/14 06:55:08;;;;;;;11.30;10.20;;;21.20;99.90;;;;;;5089997;28;20685;-84
2021/08/14 06:57:34;;;;;;;10.73;9.83;;;21.40;99.90;;;;;;5090868;28;20677;-84
2021/08/14 07:00:03;;;;;;;10.90;9.80;;;21.40;99.90;;;;;;5090958;28;20619;-84
2021/08/14 07:02:30;;;;;;;9.90;9.00;;;21.50;99.90;;;;;;5090369;28;20934;-84
2021/08/14 07:04:57;;;;;;;10.23;9.30;;;21.60;99.90;;;;;;5090834;28;20686;-84
2021/08/14 07:07:25;;;;;;;10.23;9.33;;;21.50;99.90;;;;;;5090329;28;20607;-84
2021/08/14 07:09:52;;;;;;;10.47;9.47;;;21.60;99.90;;;;;;5090674;28;21032;-84
2021/08/14 07:12:19;;;;;;;11.33;9.30;;;21.70;99.90;;;;;;5089714;28;20617;-84
2021/08/14 07:14:46;;;;;;;10.23;9.23;;;21.90;99.80;;;;;;5090825;28;20707;-83
2021/08/14 07:17:13;;;;;;;10.23;9.33;;;21.80;98.60;;;;;;5090643;28;20676;-84
2021/08/14 07:19:41;;;;;;;10.90;9.90;;;22.00;98.80;;;;;;5090208;28;20623;-83
2021/08/14 07:22:10;;;;;;;10.57;9.47;;;22.00;98.50;;;;;;5088546;28;20701;-84
2021/08/14 07:24:38;;;;;;;9.63;8.73;;;22.10;98.50;;;;;;5090392;28;20716;-83
2021/08/14 07:27:06;;;;;;;10.43;8.60;;;22.40;98.60;;;;;;5090189;28;20673;-84
2021/08/14 07:29:33;;;;;;;9.83;8.93;;;22.40;98.70;;;;;;5090196;28;20608;-83
2021/08/14 07:32:00;;;;;;;9.97;9.07;;;22.60;98.40;;;;;;5089409;28;20615;-84
2021/08/14 07:34:27;;;;;;;10.17;9.07;;;22.70;98.50;;;;;;5090486;28;20610;-83
2021/08/14 07:36:54;;;;;;;10.10;9.10;;;22.80;98.10;;;;;;5094192;28;20613;-83
2021/08/14 07:39:21;;;;;;;11.50;10.40;;;23.00;97.80;;;;;;5094595;28;20665;-84
2021/08/14 07:41:49;;;;;;;10.77;9.10;;;23.00;97.60;;;;;;5093673;28;21313;-84
2021/08/14 07:44:16;;;;;;;10.50;9.60;;;23.00;97.70;;;;;;5094045;28;20612;-83
2021/08/14 07:46:43;;;;;;;10.17;9.23;;;23.10;97.90;;;;;;5094061;28;20616;-84
2021/08/14 07:49:10;;;;;;;10.37;8.93;;;23.20;98.00;;;;;;5093655;28;20614;-84
2021/08/14 07:51:37;;;;;;;10.40;8.73;;;23.30;98.30;;;;;;5093932;28;20634;-84
2021/08/14 07:54:03;;;;;;;10.97;9.97;;;23.60;97.40;;;;;;5094395;28;20615;-84
2021/08/14 07:56:30;;;;;;;10.60;9.60;;;23.70;97.10;;;;;;5094595;28;21109;-84
2021/08/14 07:58:58;;;;;;;11.07;10.07;;;23.80;96.20;;;;;;5094149;28;21026;-84
2021/08/14 08:01:25;;;;;;;10.83;9.70;;;23.80;96.80;;;;;;5093855;28;20619;-84
2021/08/14 08:03:52;;;;;;;9.73;8.83;;;23.70;97.30;;;;;;5093962;28;20696;-84
2021/08/14 08:06:19;;;;;;;10.70;9.80;;;23.80;96.60;;;;;;5094107;28;20668;-83
2021/08/14 08:08:46;;;;;;;9.60;8.80;;;24.10;96.10;;;;;;5093911;28;20669;-83
2021/08/14 08:11:13;;;;;;;10.53;9.73;;;24.20;96.10;;;;;;5093509;28;20662;-83
2021/08/14 08:13:40;;;;;;;10.60;9.60;;;24.30;95.10;;;;;;5093464;28;20608;-83
2021/08/14 08:16:08;;;;;;;10.40;9.30;;;24.20;95.90;;;;;;5093244;28;20982;-83
2021/08/14 08:18:35;;;;;;;10.17;9.20;;;24.20;96.20;;;;;;5093636;28;20631;-83
2021/08/14 08:21:02;;;;;;;9.10;8.30;;;24.30;96.50;;;;;;5093854;28;20677;-83
2021/08/14 08:23:29;;;;;;;9.70;8.70;;;24.30;95.70;;;;;;5092790;28;20613;-84
2021/08/14 08:25:55;;;;;;;9.33;8.53;;;24.60;94.90;;;;;;5093483;28;20713;-84
2021/08/14 08:28:23;;;;;;;9.27;8.47;;;24.70;93.70;;;;;;5093380;28;21005;-83
2021/08/14 08:30:51;;;;;;;9.43;8.23;;;24.80;93.40;;;;;;5092587;28;21366;-83
2021/08/14 08:33:19;;;;;;;10.50;9.33;;;24.90;94.20;;;;;;5093171;28;20612;-83
2021/08/14 08:35:46;;;;;;;10.63;8.70;;;24.90;93.70;;;;;;5093550;28;21170;-83
2021/08/14 08:38:13;;;;;;;9.10;7.93;;;24.80;93.60;;;;;;5093612;28;20613;-83
2021/08/14 08:40:41;;;;;;;8.70;7.90;;;25.00;91.30;;;;;;5093277;28;20608;-83
2021/08/14 08:43:09;;;;;;;8.90;8.00;;;25.00;92.90;;;;;;5092294;28;20612;-83
2021/08/14 08:45:36;;;;;;;9.73;8.20;;;25.10;93.10;;;;;;5092534;28;20651;-83
2021/08/14 08:48:05;;;;;;;8.60;7.43;;;25.20;92.90;;;;;;5092377;28;20665;-83
2021/08/14 08:50:34;;;;;;;9.23;7.60;;;25.30;91.60;;;;;;5093188;28;20728;-83
2021/08/14 08:53:04;;;;;;;8.33;7.60;;;25.50;90.10;;;;;;5092449;28;21005;-83
2021/08/14 08:55:33;;;;;;;7.47;6.73;;;25.40;90.70;;;;;;5093725;28;20647;-83
2021/08/14 08:58:00;;;;;;;8.77;7.90;;;25.60;90.10;;;;;;5092652;28;20623;-84
2021/08/14 09:00:27;;;;;;;8.40;7.60;;;25.60;89.90;;;;;;5093149;28;20620;-84
2021/08/14 09:03:12;;;;;;;8.77;7.97;;;25.70;89.20;;;;;;5092432;28;20644;-83
2021/08/14 09:05:48;;;;;;;8.93;7.97;;;25.70;91.10;;;;;;5092868;28;20651;-84
2021/08/14 09:08:15;;;;;;;8.60;7.90;;;25.80;89.90;;;;;;5092283;28;20632;-83
2021/08/14 09:10:43;;;;;;;8.80;8.00;;;25.80;87.50;;;;;;5092921;28;20608;-84
2021/08/14 09:13:12;;;;;;;9.50;8.60;;;26.00;87.10;;;;;;5092188;28;20641;-83
2021/08/14 09:15:39;;;;;;;9.20;8.30;;;26.10;88.90;;;;;;5093074;28;20883;-84
2021/08/14 09:18:08;;;;;;;10.40;8.10;;;26.20;88.50;;;;;;5092255;28;20672;-83
2021/08/14 09:20:50;;;;;;;11.80;8.10;;;26.10;88.30;;;;;;5092582;28;20612;-83
2021/08/14 09:23:17;;;;;;;8.47;7.80;;;26.00;90.00;;;;;;5090762;28;20640;-84
2021/08/14 09:25:45;;;;;;;8.80;7.60;;;26.10;87.90;;;;;;5092419;28;21209;-84
2021/08/14 09:28:14;;;;;;;7.90;7.17;;;26.20;90.20;;;;;;5092407;28;21022;-84
2021/08/14 09:30:49;;;;;;;10.63;8.40;;;26.40;84.60;;;;;;5092054;28;20652;-84
2021/08/14 09:33:19;;;;;;;11.53;6.83;;;26.60;84.90;;;;;;5091230;28;20612;-84
2021/08/14 09:35:47;;;;;;;8.83;7.90;;;26.90;84.60;;;;;;5092429;28;21025;-84
2021/08/14 09:38:16;;;;;;;8.27;7.33;;;26.90;87.70;;;;;;5091962;28;20603;-83
2021/08/14 09:40:45;;;;;;;8.33;7.57;;;26.60;85.10;;;;;;5092025;28;20940;-83
2021/08/14 09:43:13;;;;;;;8.80;7.40;;;26.60;84.90;;;;;;5092138;28;20628;-84
2021/08/14 09:45:40;;;;;;;12.00;7.80;;;26.60;85.20;;;;;;5092131;28;20644;-83
2021/08/14 09:48:18;;;;;;;8.93;8.03;;;26.70;85.00;;;;;;5091738;28;20828;-84
2021/08/14 09:50:46;;;;;;;8.80;8.10;;;26.80;85.50;;;;;;5091958;28;21120;-84
2021/08/14 09:53:17;;;;;;;8.30;7.50;;;26.90;84.00;;;;;;5091432;28;20670;-85
2021/08/14 09:55:45;;;;;;;8.20;7.40;;;27.10;81.50;;;;;;5091998;28;20609;-84
2021/08/14 09:58:15;;;;;;;8.30;7.60;;;27.20;84.80;;;;;;5090729;28;20609;-84
2021/08/14 10:00:44;;;;;;;8.97;7.90;;;27.30;84.30;;;;;;5091779;28;20612;-84
2021/08/14 10:03:14;;;;;;;7.70;7.00;;;27.40;83.90;;;;;;5091167;28;20965;-84
2021/08/14 10:05:42;;;;;;;8.43;7.63;;;27.60;81.80;;;;;;5091740;28;20746;-85
2021/08/14 10:08:09;;;;;;;8.90;8.10;;;27.90;80.80;;;;;;5091651;28;20968;-85
2021/08/14 10:10:38;;;;;;;9.20;7.97;;;27.90;80.00;;;;;;5091385;28;21173;-84
2021/08/14 10:13:05;;;;;;;8.93;8.13;;;27.90;79.50;;;;;;5087838;28;20696;-84
2021/08/14 10:15:33;;;;;;;9.13;8.43;;;28.10;80.70;;;;;;5071558;28;20606;-84
2021/08/14 10:18:00;;;;;;;9.20;8.40;;;28.30;78.70;;;;;;5070658;28;20648;-84
2021/08/14 10:20:27;;;;;;;9.47;8.67;;;28.40;80.10;;;;;;5071214;28;20622;-85
2021/08/14 10:22:59;;;;;;;8.63;7.93;;;28.40;79.10;;;;;;5069416;28;20614;-85
2021/08/14 10:25:27;;;;;;;9.50;8.00;;;28.50;79.20;;;;;;5070408;28;20730;-84
2021/08/14 10:27:58;;;;;;;8.40;7.60;;;28.50;80.10;;;;;;5070923;28;20617;-85
2021/08/14 10:30:47;;;;;;;8.60;7.30;;;28.40;80.50;;;;;;5071033;28;20609;-84
2021/08/14 10:33:40;;;;;;;8.50;7.80;;;28.50;78.60;;;;;;5070299;28;21244;-84
2021/08/14 10:36:36;;;;;;;8.73;8.03;;;28.60;79.00;;;;;;5071026;28;20625;-84
2021/08/14 10:39:21;;;;;;;8.73;7.97;;;28.80;79.20;;;;;;5070738;28;20614;-85
2021/08/14 10:41:50;;;;;;;8.70;7.90;;;28.90;76.70;;;;;;5070177;28;20606;-85
2021/08/14 10:44:40;;;;;;;10.03;9.20;;;29.10;76.50;;;;;;5070036;28;20614;-86
2021/08/14 10:47:27;;;;;;;8.13;7.33;;;29.30;75.50;;;;;;5070512;28;20693;-86
2021/08/14 10:49:54;;;;;;;8.63;7.97;;;29.40;74.90;;;;;;5070488;28;20625;-85
2021/08/14 10:52:32;;;;;;;8.20;7.50;;;29.60;74.40;;;;;;5069676;28;20609;-84
2021/08/14 10:55:07;;;;;;;10.17;9.20;;;29.70;75.20;;;;;;5070678;28;20649;-84
2021/08/14 10:57:52;;;;;;;7.87;7.27;;;29.80;73.90;;;;;;5070792;28;20660;-85
2021/08/14 11:00:27;;;;;;;8.57;7.67;;;30.00;76.90;;;;;;5070589;28;21192;-85
2021/08/14 11:03:06;;;;;;;11.07;7.60;;;30.00;73.00;;;;;;5069062;28;21003;-84
2021/08/14 11:05:34;;;;;;;8.87;8.10;;;30.10;74.20;;;;;;5070511;28;20702;-85
2021/08/14 11:08:01;;;;;;;8.60;7.90;;;30.10;73.20;;;;;;5070376;28;20659;-85
2021/08/14 11:10:34;;;;;;;9.43;8.70;;;29.90;74.80;;;;;;5069993;28;20729;-85
2021/08/14 11:13:01;;;;;;;8.43;7.50;;;29.70;73.20;;;;;;5071416;28;20621;-85
2021/08/14 11:15:37;;;;;;;9.40;8.60;;;29.40;71.40;;;;;;5089938;28;20613;-85
2021/08/14 11:18:04;;;;;;;9.63;8.60;;;29.60;75.60;;;;;;5090581;28;20631;-84
2021/08/14 11:20:35;;;;;;;8.70;7.90;;;29.50;73.70;;;;;;5090515;28;20698;-84
2021/08/14 11:23:05;;;;;;;8.50;7.80;;;29.60;77.60;;;;;;5088848;28;20604;-85
2021/08/14 11:25:39;;;;;;;8.93;8.03;;;29.40;76.20;;;;;;5090327;28;21259;-85
2021/08/14 11:28:08;;;;;;;8.73;7.93;;;29.40;74.10;;;;;;5090582;28;20639;-85
2021/08/14 11:30:39;;;;;;;9.57;8.77;;;29.60;75.60;;;;;;5073074;28;20622;-85
2021/08/14 11:33:08;;;;;;;8.37;7.57;;;29.70;75.40;;;;;;5069309;28;20728;-84
2021/08/14 11:35:37;;;;;;;9.20;8.30;;;29.60;76.40;;;;;;5070127;28;20674;-87
2021/08/14 11:38:05;;;;;;;8.97;8.27;;;29.90;72.40;;;;;;5069849;28;21150;-85
2021/08/14 11:40:34;;;;;;;9.40;8.60;;;30.20;75.60;;;;;;5069528;28;21121;-84
2021/08/14 11:43:03;;;;;;;9.07;8.37;;;30.30;74.50;;;;;;5069406;28;20675;-84
2021/08/14 11:45:32;;;;;;;9.30;8.60;;;30.30;72.10;;;;;;5069915;28;20621;-85
2021/08/14 11:48:02;;;;;;;9.80;9.00;;;30.10;73.10;;;;;;5069944;28;21012;-85
2021/08/14 11:50:36;;;;;;;9.60;8.80;;;30.10;73.50;;;;;;5069756;28;20606;-86
2021/08/14 11:53:04;;;;;;;9.03;8.10;;;30.20;75.60;;;;;;5069410;28;20652;-85
2021/08/14 11:55:31;;;;;;;8.93;8.13;;;29.80;74.60;;;;;;5069788;28;20637;-86
2021/08/14 11:57:58;;;;;;;9.40;8.60;;;29.50;76.10;;;;;;5069660;28;21185;-85
2021/08/14 12:00:27;;;;;;;8.73;8.00;;;29.10;74.00;;;;;;5069661;28;21292;-85
2021/08/14 12:03:08;;;;;;;10.23;8.63;;;29.00;78.10;;;;;;5069478;28;20659;-85
2021/08/14 12:05:35;;;;;;;9.53;8.63;;;28.70;76.90;;;;;;5069214;28;21557;-86
2021/08/14 12:08:03;;;;;;;9.30;8.37;;;29.00;80.00;;;;;;5069720;28;20657;-85
2021/08/14 12:10:30;;;;;;;9.80;8.37;;;30.40;72.80;;;;;;5069554;28;20626;-84
2021/08/14 12:12:59;;;;;;;8.70;8.00;;;31.50;68.90;;;;;;5070309;28;20613;-85
2021/08/14 12:15:36;;;;;;;542.87;99.40;;;32.50;66.30;;;;;;5089918;28;20951;-84
2021/08/14 12:18:06;;;;;;;8.53;7.93;;;32.50;64.80;;;;;;5089248;28;20700;-86
2021/08/14 12:20:34;;;;;;;8.83;8.00;;;32.50;68.60;;;;;;5089783;28;21040;-85
2021/08/14 12:23:22;;;;;;;9.10;8.30;;;33.40;64.00;;;;;;5090865;28;20745;-88
2021/08/14 12:25:51;;;;;;;8.53;7.90;;;34.70;62.70;;;;;;5093265;28;21188;-86
2021/08/14 12:28:18;;;;;;;9.10;8.30;;;35.60;59.70;;;;;;5093018;28;20643;-86
2021/08/14 12:30:46;;;;;;;8.90;8.00;;;35.10;59.30;;;;;;5093129;28;21164;-85
2021/08/14 12:33:31;;;;;;;8.60;7.90;;;34.70;57.80;;;;;;5092797;28;20616;-87
2021/08/14 12:36:00;;;;;;;8.30;7.70;;;35.30;59.50;;;;;;5093140;28;20741;-86
2021/08/14 12:38:28;;;;;;;8.83;8.13;;;35.30;58.00;;;;;;5093319;28;20608;-86
2021/08/14 12:40:55;;;;;;;8.60;7.90;;;35.50;57.50;;;;;;5092310;28;20616;-85
2021/08/14 12:43:23;;;;;;;9.07;8.37;;;36.30;57.40;;;;;;5092897;28;20647;-87
2021/08/14 12:45:50;;;;;;;9.27;8.33;;;35.80;55.10;;;;;;5092923;28;20667;-85